sensor_id;sensor_type;location;lat;lon;timestamp;temperature;humidity
18934;DHT22;9599;53.706;10.384;2023-10-19T00:00:06;8.00;99.90
18934;DHT22;9599;53.706;10.384;2023-10-19T00:02:51;8.00;99.90
18934;DHT22;9599;53.706;10.384;2023-10-19T00:05:19;8.00;99.90
18934;DHT22;9599;53.706;10.384;2023-10-19T00:07:49;8.00;99.90
18934;DHT22;9599;53.706;10.384;2023-10-19T00:10:16;7.90;99.90
18934;DHT22;9599;53.706;10.384;2023-10-19T00:12:44;7.90;99.90
18934;DHT22;9599;53.706;10.384;2023-10-19T00:15:17;7.90;99.90
18934;DHT22;9599;53.706;10.384;2023-10-19T00:17:50;8.00;99.90
18934;DHT22;9599;53.706;10.384;2023-10-19T00:20:20;7.90;99.90
18934;DHT22;9599;53.706;10.384;2023-10-19T00:23:19;7.90;99.90
18934;DHT22;9599;53.706;10.384;2023-10-19T00:25:51;7.90;99.90
18934;DHT22;9599;53.706;10.384;2023-10-19T00:28:19;8.00;99.90
18934;DHT22;9599;53.706;10.384;2023-10-19T00:30:49;8.00;99.90
18934;DHT22;9599;53.706;10.384;2023-10-19T00:33:19;8.00;99.90
18934;DHT22;9599;53.706;10.384;2023-10-19T00:35:49;8.00;99.90
18934;DHT22;9599;53.706;10.384;2023-10-19T00:38:28;8.10;99.90
18934;DHT22;9599;53.706;10.384;2023-10-19T00:41:07;8.00;99.90
18934;DHT22;9599;53.706;10.384;2023-10-19T00:43:41;8.00;99.90
18934;DHT22;9599;53.706;10.384;2023-10-19T00:46:12;8.00;99.90
18934;DHT22;9599;53.706;10.384;2023-10-19T00:48:53;8.00;99.90
18934;DHT22;9599;53.706;10.384;2023-10-19T00:51:25;8.00;99.90
18934;DHT22;9599;53.706;10.384;2023-10-19T00:54:08;8.00;99.90
18934;DHT22;9599;53.706;10.384;2023-10-19T00:56:42;8.00;99.90
18934;DHT22;9599;53.706;10.384;2023-10-19T00:59:18;8.00;99.90
18934;DHT22;9599;53.706;10.384;2023-10-19T01:01:50;8.00;99.90
18934;DHT22;9599;53.706;10.384;2023-10-19T01:04:22;8.00;99.90
18934;DHT22;9599;53.706;10.384;2023-10-19T01:06:59;8.00;99.90
18934;DHT22;9599;53.706;10.384;2023-10-19T01:09:33;8.00;99.90
18934;DHT22;9599;53.706;10.384;2023-10-19T01:12:03;8.00;99.90
18934;DHT22;9599;53.706;10.384;2023-10-19T01:14:44;8.00;99.90
18934;DHT22;9599;53.706;10.384;2023-10-19T01:17:12;8.00;99.90
18934;DHT22;9599;53.706;10.384;2023-10-19T01:19:41;8.00;99.90
18934;DHT22;9599;53.706;10.384;2023-10-19T01:22:09;8.00;99.90
18934;DHT22;9599;53.706;10.384;2023-10-19T01:24:44;8.00;99.90
18934;DHT22;9599;53.706;10.384;2023-10-19T01:27:13;7.90;99.90
18934;DHT22;9599;53.706;10.384;2023-10-19T01:29:41;8.00;99.90
18934;DHT22;9599;53.706;10.384;2023-10-19T01:32:13;8.00;99.90
18934;DHT22;9599;53.706;10.384;2023-10-19T01:34:42;8.00;99.90
18934;DHT22;9599;53.706;10.384;2023-10-19T01:37:10;8.00;99.90
18934;DHT22;9599;53.706;10.384;2023-10-19T01:39:39;8.00;99.90
18934;DHT22;9599;53.706;10.384;2023-10-19T01:42:10;8.00;99.90
18934;DHT22;9599;53.706;10.384;2023-10-19T01:44:38;8.00;99.90
18934;DHT22;9599;53.706;10.384;2023-10-19T01:47:07;8.10;99.90
18934;DHT22;9599;53.706;10.384;2023-10-19T01:49:35;8.10;99.90
18934;DHT22;9599;53.706;10.384;2023-10-19T01:52:04;8.10;99.90
18934;DHT22;9599;53.706;10.384;2023-10-19T01:54:33;8.10;99.90
18934;DHT22;9599;53.706;10.384;2023-10-19T01:57:04;8.10;99.90
18934;DHT22;9599;53.706;10.384;2023-10-19T01:59:36;8.10;99.90
18934;DHT22;9599;53.706;10.384;2023-10-19T02:02:04;8.10;99.90
18934;DHT22;9599;53.706;10.384;2023-10-19T02:04:32;8.10;99.90
18934;DHT22;9599;53.706;10.384;2023-10-19T02:07:02;8.10;99.90
18934;DHT22;9599;53.706;10.384;2023-10-19T02:09:30;8.20;99.90
18934;DHT22;9599;53.706;10.384;2023-10-19T02:11:59;8.20;99.90
18934;DHT22;9599;53.706;10.384;2023-10-19T02:14:28;8.20;99.90
18934;DHT22;9599;53.706;10.384;2023-10-19T02:16:59;8.20;99.90
18934;DHT22;9599;53.706;10.384;2023-10-19T02:19:28;8.20;99.90
18934;DHT22;9599;53.706;10.384;2023-10-19T02:21:59;8.20;99.90
18934;DHT22;9599;53.706;10.384;2023-10-19T02:24:27;8.20;99.90
18934;DHT22;9599;53.706;10.384;2023-10-19T02:26:57;8.20;99.90
18934;DHT22;9599;53.706;10.384;2023-10-19T02:29:24;8.30;99.90
18934;DHT22;9599;53.706;10.384;2023-10-19T02:31:54;8.30;99.90
18934;DHT22;9599;53.706;10.384;2023-10-19T02:34:23;8.30;99.90
18934;DHT22;9599;53.706;10.384;2023-10-19T02:36:51;8.30;99.90
18934;DHT22;9599;53.706;10.384;2023-10-19T02:39:18;8.30;99.90
18934;DHT22;9599;53.706;10.384;2023-10-19T02:41:48;8.30;99.90
18934;DHT22;9599;53.706;10.384;2023-10-19T02:44:17;8.30;99.90
18934;DHT22;9599;53.706;10.384;2023-10-19T02:46:50;8.30;99.90
18934;DHT22;9599;53.706;10.384;2023-10-19T02:49:20;8.30;99.90
18934;DHT22;9599;53.706;10.384;2023-10-19T02:51:52;8.30;99.90
18934;DHT22;9599;53.706;10.384;2023-10-19T02:54:21;8.30;99.90
18934;DHT22;9599;53.706;10.384;2023-10-19T02:56:52;8.30;99.90
18934;DHT22;9599;53.706;10.384;2023-10-19T02:59:21;8.30;99.90
18934;DHT22;9599;53.706;10.384;2023-10-19T03:01:51;8.30;99.90
18934;DHT22;9599;53.706;10.384;2023-10-19T03:04:19;8.40;99.90
18934;DHT22;9599;53.706;10.384;2023-10-19T03:06:48;8.40;99.90
18934;DHT22;9599;53.706;10.384;2023-10-19T03:09:17;8.40;99.90
18934;DHT22;9599;53.706;10.384;2023-10-19T03:11:52;8.40;99.90
18934;DHT22;9599;53.706;10.384;2023-10-19T03:14:20;8.30;99.90
18934;DHT22;9599;53.706;10.384;2023-10-19T03:16:51;8.40;99.90
18934;DHT22;9599;53.706;10.384;2023-10-19T03:19:18;8.40;99.90
18934;DHT22;9599;53.706;10.384;2023-10-19T03:21:47;8.40;99.90
18934;DHT22;9599;53.706;10.384;2023-10-19T03:24:18;8.40;99.90
18934;DHT22;9599;53.706;10.384;2023-10-19T03:27:02;8.40;99.90
18934;DHT22;9599;53.706;10.384;2023-10-19T03:29:36;8.40;99.90
18934;DHT22;9599;53.706;10.384;2023-10-19T03:32:06;8.40;99.90
18934;DHT22;9599;53.706;10.384;2023-10-19T03:34:35;8.40;99.90
18934;DHT22;9599;53.706;10.384;2023-10-19T03:37:06;8.40;99.90
18934;DHT22;9599;53.706;10.384;2023-10-19T03:39:40;8.40;99.90
18934;DHT22;9599;53.706;10.384;2023-10-19T03:42:12;8.40;99.90
18934;DHT22;9599;53.706;10.384;2023-10-19T03:44:41;8.40;99.90
18934;DHT22;9599;53.706;10.384;2023-10-19T03:47:17;8.40;99.90
18934;DHT22;9599;53.706;10.384;2023-10-19T03:49:48;8.40;99.90
18934;DHT22;9599;53.706;10.384;2023-10-19T03:52:17;8.40;99.90
18934;DHT22;9599;53.706;10.384;2023-10-19T03:54:49;8.40;99.90
18934;DHT22;9599;53.706;10.384;2023-10-19T03:57:18;8.40;99.90
18934;DHT22;9599;53.706;10.384;2023-10-19T03:59:52;8.40;99.90
18934;DHT22;9599;53.706;10.384;2023-10-19T04:02:24;8.40;99.90
18934;DHT22;9599;53.706;10.384;2023-10-19T04:04:54;8.40;99.90
18934;DHT22;9599;53.706;10.384;2023-10-19T04:07:23;8.40;99.90
18934;DHT22;9599;53.706;10.384;2023-10-19T04:09:55;8.50;99.90
18934;DHT22;9599;53.706;10.384;2023-10-19T04:12:37;8.50;99.90
18934;DHT22;9599;53.706;10.384;2023-10-19T04:15:09;8.50;99.90
18934;DHT22;9599;53.706;10.384;2023-10-19T04:17:41;8.60;99.90
18934;DHT22;9599;53.706;10.384;2023-10-19T04:20:10;8.50;99.90
18934;DHT22;9599;53.706;10.384;2023-10-19T04:22:55;8.50;99.90
18934;DHT22;9599;53.706;10.384;2023-10-19T04:25:25;8.50;99.90
18934;DHT22;9599;53.706;10.384;2023-10-19T04:27:54;8.50;99.90
18934;DHT22;9599;53.706;10.384;2023-10-19T04:30:24;8.50;99.90
18934;DHT22;9599;53.706;10.384;2023-10-19T04:32:53;8.50;99.90
18934;DHT22;9599;53.706;10.384;2023-10-19T04:35:22;8.50;99.90
18934;DHT22;9599;53.706;10.384;2023-10-19T04:37:51;8.50;99.90
18934;DHT22;9599;53.706;10.384;2023-10-19T04:40:21;8.60;99.90
18934;DHT22;9599;53.706;10.384;2023-10-19T04:42:51;8.50;99.90
18934;DHT22;9599;53.706;10.384;2023-10-19T04:45:20;8.50;99.90
18934;DHT22;9599;53.706;10.384;2023-10-19T04:47:50;8.50;99.90
18934;DHT22;9599;53.706;10.384;2023-10-19T04:50:19;8.50;99.90
18934;DHT22;9599;53.706;10.384;2023-10-19T04:52:47;8.50;99.90
18934;DHT22;9599;53.706;10.384;2023-10-19T04:55:15;8.40;99.90
18934;DHT22;9599;53.706;10.384;2023-10-19T04:57:43;8.30;99.90
18934;DHT22;9599;53.706;10.384;2023-10-19T05:00:15;8.30;99.90
18934;DHT22;9599;53.706;10.384;2023-10-19T05:02:43;8.20;99.90
18934;DHT22;9599;53.706;10.384;2023-10-19T05:05:11;8.20;99.90
18934;DHT22;9599;53.706;10.384;2023-10-19T05:07:41;8.20;99.90
18934;DHT22;9599;53.706;10.384;2023-10-19T05:10:09;8.20;99.90
18934;DHT22;9599;53.706;10.384;2023-10-19T05:12:37;8.20;99.90
18934;DHT22;9599;53.706;10.384;2023-10-19T05:15:06;8.10;99.90
18934;DHT22;9599;53.706;10.384;2023-10-19T05:17:36;8.20;99.90
18934;DHT22;9599;53.706;10.384;2023-10-19T05:20:06;8.10;99.90
18934;DHT22;9599;53.706;10.384;2023-10-19T05:22:34;8.10;99.90
18934;DHT22;9599;53.706;10.384;2023-10-19T05:25:02;8.10;99.90
18934;DHT22;9599;53.706;10.384;2023-10-19T05:27:31;8.00;99.90
18934;DHT22;9599;53.706;10.384;2023-10-19T05:30:00;8.00;99.90
18934;DHT22;9599;53.706;10.384;2023-10-19T05:32:29;8.00;99.90
18934;DHT22;9599;53.706;10.384;2023-10-19T05:34:58;7.90;99.90
18934;DHT22;9599;53.706;10.384;2023-10-19T05:37:31;8.00;99.90
18934;DHT22;9599;53.706;10.384;2023-10-19T05:39:59;7.90;99.90
18934;DHT22;9599;53.706;10.384;2023-10-19T05:42:27;7.90;99.90
18934;DHT22;9599;53.706;10.384;2023-10-19T05:44:56;7.90;99.90
18934;DHT22;9599;53.706;10.384;2023-10-19T05:47:24;7.90;99.90
18934;DHT22;9599;53.706;10.384;2023-10-19T05:49:51;7.90;99.90
18934;DHT22;9599;53.706;10.384;2023-10-19T05:52:21;7.90;99.90
18934;DHT22;9599;53.706;10.384;2023-10-19T05:54:50;7.90;99.90
18934;DHT22;9599;53.706;10.384;2023-10-19T05:57:20;7.90;99.90
18934;DHT22;9599;53.706;10.384;2023-10-19T05:59:49;7.90;99.90
18934;DHT22;9599;53.706;10.384;2023-10-19T06:02:17;7.80;99.90
18934;DHT22;9599;53.706;10.384;2023-10-19T06:04:58;7.80;99.90
18934;DHT22;9599;53.706;10.384;2023-10-19T06:07:28;7.80;99.90
18934;DHT22;9599;53.706;10.384;2023-10-19T06:09:56;7.80;99.90
18934;DHT22;9599;53.706;10.384;2023-10-19T06:12:24;7.80;99.90
18934;DHT22;9599;53.706;10.384;2023-10-19T06:14:52;7.80;99.90
18934;DHT22;9599;53.706;10.384;2023-10-19T06:17:20;7.80;99.90
18934;DHT22;9599;53.706;10.384;2023-10-19T06:19:48;7.80;99.90
18934;DHT22;9599;53.706;10.384;2023-10-19T06:22:16;7.80;99.90
18934;DHT22;9599;53.706;10.384;2023-10-19T06:24:45;7.80;99.90
18934;DHT22;9599;53.706;10.384;2023-10-19T06:27:13;7.80;99.90
18934;DHT22;9599;53.706;10.384;2023-10-19T06:29:41;7.70;99.90
18934;DHT22;9599;53.706;10.384;2023-10-19T06:32:10;7.70;99.90
18934;DHT22;9599;53.706;10.384;2023-10-19T06:34:40;7.70;99.90
18934;DHT22;9599;53.706;10.384;2023-10-19T06:37:08;7.70;99.90
18934;DHT22;9599;53.706;10.384;2023-10-19T06:39:37;7.80;99.90
18934;DHT22;9599;53.706;10.384;2023-10-19T06:42:09;7.70;99.90
18934;DHT22;9599;53.706;10.384;2023-10-19T06:44:41;7.70;99.90
18934;DHT22;9599;53.706;10.384;2023-10-19T06:47:10;7.70;99.90
18934;DHT22;9599;53.706;10.384;2023-10-19T06:49:39;7.70;99.90
18934;DHT22;9599;53.706;10.384;2023-10-19T06:52:07;7.70;99.90
18934;DHT22;9599;53.706;10.384;2023-10-19T06:54:38;7.80;99.90
18934;DHT22;9599;53.706;10.384;2023-10-19T06:57:08;7.70;99.90
18934;DHT22;9599;53.706;10.384;2023-10-19T06:59:37;7.70;99.90
18934;DHT22;9599;53.706;10.384;2023-10-19T07:02:05;7.70;99.90
18934;DHT22;9599;53.706;10.384;2023-10-19T07:04:34;7.80;99.90
18934;DHT22;9599;53.706;10.384;2023-10-19T07:07:03;7.80;99.90
18934;DHT22;9599;53.706;10.384;2023-10-19T07:09:31;7.90;99.90
18934;DHT22;9599;53.706;10.384;2023-10-19T07:12:01;7.90;99.90
18934;DHT22;9599;53.706;10.384;2023-10-19T07:14:32;7.90;99.90
18934;DHT22;9599;53.706;10.384;2023-10-19T07:17:00;7.80;99.90
18934;DHT22;9599;53.706;10.384;2023-10-19T07:19:28;7.80;99.90
18934;DHT22;9599;53.706;10.384;2023-10-19T07:21:56;7.80;99.90
18934;DHT22;9599;53.706;10.384;2023-10-19T07:24:25;7.80;99.90
18934;DHT22;9599;53.706;10.384;2023-10-19T07:26:53;7.80;99.90
18934;DHT22;9599;53.706;10.384;2023-10-19T07:29:31;7.80;99.90
18934;DHT22;9599;53.706;10.384;2023-10-19T07:32:00;7.80;99.90
18934;DHT22;9599;53.706;10.384;2023-10-19T07:34:31;7.80;99.90
18934;DHT22;9599;53.706;10.384;2023-10-19T07:37:00;7.80;99.90
18934;DHT22;9599;53.706;10.384;2023-10-19T07:39:30;7.80;99.90
18934;DHT22;9599;53.706;10.384;2023-10-19T07:42:00;7.80;99.90
18934;DHT22;9599;53.706;10.384;2023-10-19T07:44:33;7.80;99.90
18934;DHT22;9599;53.706;10.384;2023-10-19T07:47:01;7.80;99.90
18934;DHT22;9599;53.706;10.384;2023-10-19T07:49:29;7.80;99.90
18934;DHT22;9599;53.706;10.384;2023-10-19T07:51:57;7.80;99.90
18934;DHT22;9599;53.706;10.384;2023-10-19T07:54:25;7.80;99.90
18934;DHT22;9599;53.706;10.384;2023-10-19T07:56:54;7.70;99.90
18934;DHT22;9599;53.706;10.384;2023-10-19T07:59:24;7.60;99.90
18934;DHT22;9599;53.706;10.384;2023-10-19T08:01:53;7.70;99.90
18934;DHT22;9599;53.706;10.384;2023-10-19T08:04:22;7.70;99.90
18934;DHT22;9599;53.706;10.384;2023-10-19T08:06:52;7.70;99.90
18934;DHT22;9599;53.706;10.384;2023-10-19T08:09:19;7.80;99.90
18934;DHT22;9599;53.706;10.384;2023-10-19T08:11:49;7.80;99.90
18934;DHT22;9599;53.706;10.384;2023-10-19T08:14:22;7.80;99.90
18934;DHT22;9599;53.706;10.384;2023-10-19T08:16:52;7.80;99.90
18934;DHT22;9599;53.706;10.384;2023-10-19T08:19:22;7.80;99.90
18934;DHT22;9599;53.706;10.384;2023-10-19T08:21:50;7.80;99.90
18934;DHT22;9599;53.706;10.384;2023-10-19T08:24:18;7.90;99.90
18934;DHT22;9599;53.706;10.384;2023-10-19T08:26:47;7.80;99.90
18934;DHT22;9599;53.706;10.384;2023-10-19T08:29:15;7.80;99.90
18934;DHT22;9599;53.706;10.384;2023-10-19T08:31:44;7.80;99.90
18934;DHT22;9599;53.706;10.384;2023-10-19T08:34:13;7.90;99.90
18934;DHT22;9599;53.706;10.384;2023-10-19T08:36:42;8.00;99.90
18934;DHT22;9599;53.706;10.384;2023-10-19T08:39:10;7.90;99.90
18934;DHT22;9599;53.706;10.384;2023-10-19T08:41:40;7.90;99.90
18934;DHT22;9599;53.706;10.384;2023-10-19T08:44:10;7.90;99.90
18934;DHT22;9599;53.706;10.384;2023-10-19T08:46:40;7.90;99.90
18934;DHT22;9599;53.706;10.384;2023-10-19T08:49:12;7.90;99.90
18934;DHT22;9599;53.706;10.384;2023-10-19T08:51:43;7.90;99.90
18934;DHT22;9599;53.706;10.384;2023-10-19T08:54:12;7.90;99.90
18934;DHT22;9599;53.706;10.384;2023-10-19T08:56:42;7.90;99.90
18934;DHT22;9599;53.706;10.384;2023-10-19T08:59:11;7.90;99.90
18934;DHT22;9599;53.706;10.384;2023-10-19T09:01:39;8.00;99.90
18934;DHT22;9599;53.706;10.384;2023-10-19T09:04:10;8.00;99.90
18934;DHT22;9599;53.706;10.384;2023-10-19T09:06:41;8.00;99.90
18934;DHT22;9599;53.706;10.384;2023-10-19T09:09:09;8.00;99.90
18934;DHT22;9599;53.706;10.384;2023-10-19T09:11:43;8.00;99.90
18934;DHT22;9599;53.706;10.384;2023-10-19T09:14:12;8.00;99.90
18934;DHT22;9599;53.706;10.384;2023-10-19T09:16:53;8.00;99.90
18934;DHT22;9599;53.706;10.384;2023-10-19T09:19:39;7.90;99.90
18934;DHT22;9599;53.706;10.384;2023-10-19T09:22:10;8.00;99.90
18934;DHT22;9599;53.706;10.384;2023-10-19T09:24:45;7.90;99.90
18934;DHT22;9599;53.706;10.384;2023-10-19T09:27:16;8.00;99.90
18934;DHT22;9599;53.706;10.384;2023-10-19T09:29:44;8.00;99.90
18934;DHT22;9599;53.706;10.384;2023-10-19T09:32:12;8.00;99.90
18934;DHT22;9599;53.706;10.384;2023-10-19T09:34:44;8.00;99.90
18934;DHT22;9599;53.706;10.384;2023-10-19T09:37:16;8.00;99.90
18934;DHT22;9599;53.706;10.384;2023-10-19T09:39:45;8.00;99.90
18934;DHT22;9599;53.706;10.384;2023-10-19T09:42:14;7.90;99.90
18934;DHT22;9599;53.706;10.384;2023-10-19T09:44:45;8.00;99.90
18934;DHT22;9599;53.706;10.384;2023-10-19T09:47:18;8.10;99.90
18934;DHT22;9599;53.706;10.384;2023-10-19T09:49:48;8.10;99.90
18934;DHT22;9599;53.706;10.384;2023-10-19T09:52:19;8.10;99.90
18934;DHT22;9599;53.706;10.384;2023-10-19T09:54:52;8.20;99.90
18934;DHT22;9599;53.706;10.384;2023-10-19T09:57:36;8.10;99.90
18934;DHT22;9599;53.706;10.384;2023-10-19T10:00:06;8.20;99.90
18934;DHT22;9599;53.706;10.384;2023-10-19T10:02:39;8.10;99.90
18934;DHT22;9599;53.706;10.384;2023-10-19T10:08:31;8.30;99.90
18934;DHT22;9599;53.706;10.384;2023-10-19T10:11:13;8.30;99.90
18934;DHT22;9599;53.706;10.384;2023-10-19T10:13:43;8.30;99.90
18934;DHT22;9599;53.706;10.384;2023-10-19T10:16:13;8.20;99.90
18934;DHT22;9599;53.706;10.384;2023-10-19T10:18:42;8.30;99.90
18934;DHT22;9599;53.706;10.384;2023-10-19T10:21:12;8.20;99.90
18934;DHT22;9599;53.706;10.384;2023-10-19T10:23:45;8.20;99.90
18934;DHT22;9599;53.706;10.384;2023-10-19T10:26:14;8.20;99.90
18934;DHT22;9599;53.706;10.384;2023-10-19T10:28:46;8.20;99.90
18934;DHT22;9599;53.706;10.384;2023-10-19T10:31:18;8.20;99.90
18934;DHT22;9599;53.706;10.384;2023-10-19T10:33:48;8.20;99.90
18934;DHT22;9599;53.706;10.384;2023-10-19T10:36:18;8.20;99.90
18934;DHT22;9599;53.706;10.384;2023-10-19T10:38:48;8.30;99.90
18934;DHT22;9599;53.706;10.384;2023-10-19T10:41:20;8.30;99.90
18934;DHT22;9599;53.706;10.384;2023-10-19T10:43:50;8.20;99.90
18934;DHT22;9599;53.706;10.384;2023-10-19T10:46:21;8.30;99.90
18934;DHT22;9599;53.706;10.384;2023-10-19T10:48:49;8.30;99.90
18934;DHT22;9599;53.706;10.384;2023-10-19T10:51:19;8.30;99.90
18934;DHT22;9599;53.706;10.384;2023-10-19T10:53:50;8.20;99.90
18934;DHT22;9599;53.706;10.384;2023-10-19T10:56:21;8.20;99.90
18934;DHT22;9599;53.706;10.384;2023-10-19T10:58:50;8.20;99.90
18934;DHT22;9599;53.706;10.384;2023-10-19T11:01:28;8.20;99.90
18934;DHT22;9599;53.706;10.384;2023-10-19T11:04:06;8.10;99.90
18934;DHT22;9599;53.706;10.384;2023-10-19T11:06:47;8.10;99.90
18934;DHT22;9599;53.706;10.384;2023-10-19T11:09:17;8.10;99.90
18934;DHT22;9599;53.706;10.384;2023-10-19T11:11:47;8.10;99.90
18934;DHT22;9599;53.706;10.384;2023-10-19T11:14:18;8.10;99.90
18934;DHT22;9599;53.706;10.384;2023-10-19T11:16:48;8.10;99.90
18934;DHT22;9599;53.706;10.384;2023-10-19T11:19:16;8.00;99.90
18934;DHT22;9599;53.706;10.384;2023-10-19T11:21:52;8.00;99.90
18934;DHT22;9599;53.706;10.384;2023-10-19T11:24:27;8.00;99.90
18934;DHT22;9599;53.706;10.384;2023-10-19T11:27:00;8.00;99.90
18934;DHT22;9599;53.706;10.384;2023-10-19T11:29:29;8.00;99.90
18934;DHT22;9599;53.706;10.384;2023-10-19T11:31:57;8.00;99.90
18934;DHT22;9599;53.706;10.384;2023-10-19T11:34:26;8.10;99.90
18934;DHT22;9599;53.706;10.384;2023-10-19T11:36:56;8.10;99.90
18934;DHT22;9599;53.706;10.384;2023-10-19T11:39:28;8.10;99.90
18934;DHT22;9599;53.706;10.384;2023-10-19T11:41:56;8.10;99.90
18934;DHT22;9599;53.706;10.384;2023-10-19T11:44:24;8.10;99.90
18934;DHT22;9599;53.706;10.384;2023-10-19T11:46:52;8.30;99.90
18934;DHT22;9599;53.706;10.384;2023-10-19T11:49:20;8.20;99.90
18934;DHT22;9599;53.706;10.384;2023-10-19T11:51:52;8.20;99.90
18934;DHT22;9599;53.706;10.384;2023-10-19T11:54:20;8.20;99.90
18934;DHT22;9599;53.706;10.384;2023-10-19T11:56:50;8.20;99.90
18934;DHT22;9599;53.706;10.384;2023-10-19T11:59:17;8.20;99.90
18934;DHT22;9599;53.706;10.384;2023-10-19T12:01:45;8.20;99.90
18934;DHT22;9599;53.706;10.384;2023-10-19T12:04:14;8.20;99.90
18934;DHT22;9599;53.706;10.384;2023-10-19T12:06:42;8.20;99.90
18934;DHT22;9599;53.706;10.384;2023-10-19T12:09:10;8.30;99.90
18934;DHT22;9599;53.706;10.384;2023-10-19T12:11:42;8.30;99.90
18934;DHT22;9599;53.706;10.384;2023-10-19T12:14:15;8.40;99.90
18934;DHT22;9599;53.706;10.384;2023-10-19T12:16:43;8.40;99.90
18934;DHT22;9599;53.706;10.384;2023-10-19T12:19:12;8.50;99.90
18934;DHT22;9599;53.706;10.384;2023-10-19T12:21:43;8.50;99.90
18934;DHT22;9599;53.706;10.384;2023-10-19T12:24:11;8.50;99.90
18934;DHT22;9599;53.706;10.384;2023-10-19T12:26:41;8.40;99.90
18934;DHT22;9599;53.706;10.384;2023-10-19T12:29:08;8.40;99.90
18934;DHT22;9599;53.706;10.384;2023-10-19T12:31:39;8.50;99.90
18934;DHT22;9599;53.706;10.384;2023-10-19T12:34:07;8.50;99.90
18934;DHT22;9599;53.706;10.384;2023-10-19T12:36:38;8.50;99.90
18934;DHT22;9599;53.706;10.384;2023-10-19T12:39:07;8.40;99.90
18934;DHT22;9599;53.706;10.384;2023-10-19T12:41:38;8.60;99.90
18934;DHT22;9599;53.706;10.384;2023-10-19T12:44:06;8.50;99.90
18934;DHT22;9599;53.706;10.384;2023-10-19T12:46:36;8.50;99.90
18934;DHT22;9599;53.706;10.384;2023-10-19T12:49:06;8.50;99.90
18934;DHT22;9599;53.706;10.384;2023-10-19T12:51:35;8.50;99.90
18934;DHT22;9599;53.706;10.384;2023-10-19T12:54:04;8.50;99.90
18934;DHT22;9599;53.706;10.384;2023-10-19T12:56:37;8.50;99.90
18934;DHT22;9599;53.706;10.384;2023-10-19T12:59:06;8.50;99.90
18934;DHT22;9599;53.706;10.384;2023-10-19T13:01:34;8.50;99.90
18934;DHT22;9599;53.706;10.384;2023-10-19T13:04:03;8.50;99.90
18934;DHT22;9599;53.706;10.384;2023-10-19T13:06:42;8.50;99.90
18934;DHT22;9599;53.706;10.384;2023-10-19T13:09:10;8.50;99.90
18934;DHT22;9599;53.706;10.384;2023-10-19T13:11:38;8.50;99.90
18934;DHT22;9599;53.706;10.384;2023-10-19T13:14:06;8.50;99.90
18934;DHT22;9599;53.706;10.384;2023-10-19T13:16:35;8.50;99.90
18934;DHT22;9599;53.706;10.384;2023-10-19T13:19:04;8.50;99.90
18934;DHT22;9599;53.706;10.384;2023-10-19T13:21:41;8.60;99.90
18934;DHT22;9599;53.706;10.384;2023-10-19T13:24:10;8.60;99.90
18934;DHT22;9599;53.706;10.384;2023-10-19T13:26:40;8.60;99.90
18934;DHT22;9599;53.706;10.384;2023-10-19T13:29:12;8.60;99.90
18934;DHT22;9599;53.706;10.384;2023-10-19T13:31:41;8.70;99.90
18934;DHT22;9599;53.706;10.384;2023-10-19T13:34:16;8.70;99.90
18934;DHT22;9599;53.706;10.384;2023-10-19T13:36:45;8.70;99.90
18934;DHT22;9599;53.706;10.384;2023-10-19T13:39:13;8.70;99.90
18934;DHT22;9599;53.706;10.384;2023-10-19T13:41:43;8.70;99.90
18934;DHT22;9599;53.706;10.384;2023-10-19T13:44:11;8.70;99.90
18934;DHT22;9599;53.706;10.384;2023-10-19T13:46:39;8.70;99.90
18934;DHT22;9599;53.706;10.384;2023-10-19T13:49:07;8.70;99.90
18934;DHT22;9599;53.706;10.384;2023-10-19T13:51:36;8.70;99.90
18934;DHT22;9599;53.706;10.384;2023-10-19T13:54:07;8.80;99.90
18934;DHT22;9599;53.706;10.384;2023-10-19T13:56:37;8.80;99.90
18934;DHT22;9599;53.706;10.384;2023-10-19T13:59:05;8.80;99.90
18934;DHT22;9599;53.706;10.384;2023-10-19T14:01:33;8.80;99.90
18934;DHT22;9599;53.706;10.384;2023-10-19T14:04:01;8.70;99.90
18934;DHT22;9599;53.706;10.384;2023-10-19T14:06:30;8.80;99.90
18934;DHT22;9599;53.706;10.384;2023-10-19T14:08:58;8.80;99.90
18934;DHT22;9599;53.706;10.384;2023-10-19T14:11:27;8.80;99.90
18934;DHT22;9599;53.706;10.384;2023-10-19T14:13:55;8.80;99.90
18934;DHT22;9599;53.706;10.384;2023-10-19T14:16:23;8.70;99.90
18934;DHT22;9599;53.706;10.384;2023-10-19T14:18:52;8.80;99.90
18934;DHT22;9599;53.706;10.384;2023-10-19T14:21:20;8.80;99.90
18934;DHT22;9599;53.706;10.384;2023-10-19T14:23:50;8.80;99.90
18934;DHT22;9599;53.706;10.384;2023-10-19T14:26:18;8.80;99.90
18934;DHT22;9599;53.706;10.384;2023-10-19T14:28:47;8.80;99.90
18934;DHT22;9599;53.706;10.384;2023-10-19T14:31:15;8.80;99.90
18934;DHT22;9599;53.706;10.384;2023-10-19T14:33:43;8.80;99.90
18934;DHT22;9599;53.706;10.384;2023-10-19T14:36:11;8.70;99.90
18934;DHT22;9599;53.706;10.384;2023-10-19T14:38:39;8.80;99.90
18934;DHT22;9599;53.706;10.384;2023-10-19T14:41:10;8.70;99.90
18934;DHT22;9599;53.706;10.384;2023-10-19T14:43:38;8.70;99.90
18934;DHT22;9599;53.706;10.384;2023-10-19T14:46:07;8.80;99.90
18934;DHT22;9599;53.706;10.384;2023-10-19T14:48:35;8.80;99.90
18934;DHT22;9599;53.706;10.384;2023-10-19T14:51:03;8.80;99.90
18934;DHT22;9599;53.706;10.384;2023-10-19T14:53:32;8.80;99.90
18934;DHT22;9599;53.706;10.384;2023-10-19T14:56:00;8.80;99.90
18934;DHT22;9599;53.706;10.384;2023-10-19T14:58:28;8.80;99.90
18934;DHT22;9599;53.706;10.384;2023-10-19T15:00:58;8.80;99.90
18934;DHT22;9599;53.706;10.384;2023-10-19T15:03:27;8.70;99.90
18934;DHT22;9599;53.706;10.384;2023-10-19T15:05:56;8.70;99.90
18934;DHT22;9599;53.706;10.384;2023-10-19T15:08:26;8.70;99.90
18934;DHT22;9599;53.706;10.384;2023-10-19T15:10:58;8.70;99.90
18934;DHT22;9599;53.706;10.384;2023-10-19T15:13:26;8.70;99.90
18934;DHT22;9599;53.706;10.384;2023-10-19T15:15:55;8.70;99.90
18934;DHT22;9599;53.706;10.384;2023-10-19T15:18:23;8.70;99.90
18934;DHT22;9599;53.706;10.384;2023-10-19T15:20:52;8.80;99.90
18934;DHT22;9599;53.706;10.384;2023-10-19T15:23:20;8.70;99.90
18934;DHT22;9599;53.706;10.384;2023-10-19T15:25:49;8.70;99.90
18934;DHT22;9599;53.706;10.384;2023-10-19T15:28:17;8.80;99.90
18934;DHT22;9599;53.706;10.384;2023-10-19T15:30:45;8.80;99.90
18934;DHT22;9599;53.706;10.384;2023-10-19T15:33:13;8.80;99.90
18934;DHT22;9599;53.706;10.384;2023-10-19T15:35:41;8.80;99.90
18934;DHT22;9599;53.706;10.384;2023-10-19T15:38:10;8.70;99.90
18934;DHT22;9599;53.706;10.384;2023-10-19T15:40:38;8.70;99.90
18934;DHT22;9599;53.706;10.384;2023-10-19T15:43:08;8.70;99.90
18934;DHT22;9599;53.706;10.384;2023-10-19T15:45:40;8.70;99.90
18934;DHT22;9599;53.706;10.384;2023-10-19T15:48:11;8.70;99.90
18934;DHT22;9599;53.706;10.384;2023-10-19T15:50:39;8.70;99.90
18934;DHT22;9599;53.706;10.384;2023-10-19T15:53:08;8.70;99.90
18934;DHT22;9599;53.706;10.384;2023-10-19T15:55:38;8.70;99.90
18934;DHT22;9599;53.706;10.384;2023-10-19T15:58:06;8.60;99.90
18934;DHT22;9599;53.706;10.384;2023-10-19T16:00:35;8.70;99.90
18934;DHT22;9599;53.706;10.384;2023-10-19T16:03:04;8.80;99.90
18934;DHT22;9599;53.706;10.384;2023-10-19T16:05:33;8.80;99.90